Time;durP1;ratioP1;P1;durP2;ratioP2;P2;SDS_P1;SDS_P2;PMS_P1;PMS_P2;Temp;Humidity;BMP_temperature;BMP_pressure;BME280_temperature;BME280_humidity;BME280_pressure;Samples;Min_cycle;Max_cycle;Signal;HPM_P1;HPM_P2
2023/12/16 00:00:15;;;;;;;9.98;2.58;;;;;;;7.88;100.00;103654.66;4785910;29;20063;-74
2023/12/16 00:02:41;;;;;;;8.88;2.55;;;;;;;8.00;100.00;103652.34;4780575;29;20043;-74
2023/12/16 00:05:08;;;;;;;8.10;2.60;;;;;;;7.91;100.00;103660.50;4780071;29;20054;-74
2023/12/16 00:07:33;;;;;;;19.45;4.22;;;;;;;7.83;100.00;103658.34;4789758;29;20039;-75
2023/12/16 00:09:58;;;;;;;7.30;2.25;;;;;;;7.86;100.00;103662.50;4780956;29;20058;-75
2023/12/16 00:12:24;;;;;;;6.53;2.95;;;;;;;7.86;100.00;103668.06;4779960;29;20043;-75
2023/12/16 00:14:49;;;;;;;5.93;2.22;;;;;;;7.86;100.00;103666.13;4779522;29;20115;-74
2023/12/16 00:17:14;;;;;;;7.55;2.97;;;;;;;7.88;100.00;103661.06;4769363;29;20222;-75
2023/12/16 00:19:40;;;;;;;6.47;2.97;;;;;;;7.90;100.00;103658.81;4782092;29;20084;-74
2023/12/16 00:22:06;;;;;;;8.50;2.03;;;;;;;7.89;100.00;103643.22;4781269;29;20114;-74
2023/12/16 00:24:32;;;;;;;5.22;2.55;;;;;;;7.80;100.00;103652.50;4776849;29;20067;-74
2023/12/16 00:26:57;;;;;;;7.50;2.35;;;;;;;7.79;100.00;103648.88;4774137;29;20542;-75
2023/12/16 00:29:22;;;;;;;7.65;3.65;;;;;;;7.84;100.00;103642.44;4778041;29;20170;-74
2023/12/16 00:31:48;;;;;;;5.30;1.73;;;;;;;7.93;100.00;103655.47;4773464;29;20035;-75
2023/12/16 00:34:13;;;;;;;6.18;2.30;;;;;;;7.85;100.00;103652.47;4776064;29;20070;-74
2023/12/16 00:36:41;;;;;;;10.50;2.95;;;;;;;7.85;100.00;103644.94;4770537;29;20531;-74
2023/12/16 00:39:07;;;;;;;10.85;2.40;;;;;;;7.77;100.00;103637.19;4778401;29;20047;-74
2023/12/16 00:41:33;;;;;;;6.45;2.45;;;;;;;7.83;100.00;103630.44;4776724;29;20401;-75
2023/12/16 00:43:58;;;;;;;9.35;3.58;;;;;;;7.84;100.00;103631.28;4774463;29;20041;-74
2023/12/16 00:46:23;;;;;;;6.18;2.92;;;;;;;7.78;100.00;103638.88;4777503;29;20028;-74
2023/12/16 00:48:49;;;;;;;11.13;2.35;;;;;;;7.85;100.00;103628.22;4782078;29;20139;-75
2023/12/16 00:51:14;;;;;;;4.20;2.95;;;;;;;7.87;100.00;103628.75;4778221;29;20125;-75
2023/12/16 00:53:39;;;;;;;9.75;2.53;;;;;;;7.79;100.00;103623.78;4774959;29;20043;-75
2023/12/16 00:56:05;;;;;;;13.98;2.97;;;;;;;7.78;100.00;103636.09;4779675;29;20039;-74
2023/12/16 00:58:31;;;;;;;5.25;2.78;;;;;;;7.81;100.00;103624.34;4774264;29;20047;-74
2023/12/16 01:00:56;;;;;;;5.93;2.20;;;;;;;7.70;100.00;103625.56;4776318;29;20027;-75
2023/12/16 01:03:21;;;;;;;6.20;1.95;;;;;;;7.76;100.00;103623.53;4780184;29;20044;-75
2023/12/16 01:05:47;;;;;;;6.32;2.65;;;;;;;7.69;100.00;103632.25;4781150;29;20088;-74
2023/12/16 01:08:12;;;;;;;9.13;2.35;;;;;;;7.83;100.00;103624.88;4781051;29;20039;-74
2023/12/16 01:10:38;;;;;;;6.25;2.88;;;;;;;7.68;100.00;103623.06;4778177;29;20038;-74
2023/12/16 01:13:04;;;;;;;6.85;2.42;;;;;;;7.71;100.00;103627.19;4783487;29;20039;-75
2023/12/16 01:15:29;;;;;;;7.93;2.67;;;;;;;7.72;100.00;103646.44;4782265;29;20039;-76
2023/12/16 01:17:55;;;;;;;4.72;2.72;;;;;;;7.60;100.00;103643.19;4780830;29;20058;-74
2023/12/16 01:20:20;;;;;;;12.68;3.25;;;;;;;7.68;100.00;103644.53;4779501;29;20497;-74
2023/12/16 01:22:45;;;;;;;13.27;4.35;;;;;;;7.46;100.00;103643.00;4778130;29;20070;-75
2023/12/16 01:25:11;;;;;;;3.85;2.30;;;;;;;7.61;100.00;103646.78;4783364;29;20047;-75
2023/12/16 01:27:36;;;;;;;2.45;1.70;;;;;;;7.64;100.00;103644.25;4781708;29;20062;-71
2023/12/16 01:30:03;;;;;;;11.70;2.67;;;;;;;7.68;100.00;103636.16;4781816;29;20079;-74
2023/12/16 01:32:29;;;;;;;4.07;2.22;;;;;;;7.69;100.00;103633.06;4774924;29;20039;-75
2023/12/16 01:34:54;;;;;;;5.53;1.90;;;;;;;7.70;100.00;103633.91;4782371;29;20034;-73
2023/12/16 01:37:20;;;;;;;9.43;2.38;;;;;;;7.57;100.00;103631.78;4777858;29;20035;-75
2023/12/16 01:39:45;;;;;;;6.35;2.17;;;;;;;7.38;100.00;103628.84;4775664;29;20408;-74
2023/12/16 01:42:11;;;;;;;11.93;2.92;;;;;;;7.42;100.00;103629.91;4777534;29;20034;-73
2023/12/16 01:44:36;;;;;;;12.32;2.70;;;;;;;7.45;100.00;103630.19;4778926;29;20038;-72
2023/12/16 01:47:02;;;;;;;9.45;2.80;;;;;;;7.50;100.00;103616.19;4779012;29;20075;-73
2023/12/16 01:49:27;;;;;;;11.13;2.50;;;;;;;7.46;100.00;103623.50;4781466;29;20063;-74
2023/12/16 01:51:53;;;;;;;5.60;2.50;;;;;;;7.46;100.00;103626.28;4776617;29;20054;-74
2023/12/16 01:54:20;;;;;;;7.63;2.75;;;;;;;7.44;100.00;103630.47;4779630;30;20042;-74
2023/12/16 01:56:55;;;;;;;7.78;2.88;;;;;;;7.46;100.00;103631.88;4775394;29;20573;-73
2023/12/16 01:59:21;;;;;;;8.55;2.83;;;;;;;7.42;100.00;103630.78;4780942;29;20042;-72
2023/12/16 02:01:46;;;;;;;6.47;3.05;;;;;;;7.34;100.00;103628.59;4783190;29;20477;-74
2023/12/16 02:04:12;;;;;;;7.47;3.20;;;;;;;7.31;100.00;103635.56;4782589;29;20042;-72
2023/12/16 02:06:39;;;;;;;9.45;2.50;;;;;;;7.40;100.00;103630.22;4775524;29;20039;-74
2023/12/16 02:09:06;;;;;;;4.38;2.95;;;;;;;7.33;100.00;103638.88;4777430;29;20039;-73
2023/12/16 02:11:31;;;;;;;5.82;3.00;;;;;;;7.35;100.00;103629.44;4782983;29;20485;-72
2023/12/16 02:13:56;;;;;;;7.45;2.88;;;;;;;7.28;100.00;103632.53;4775742;29;20034;-72
2023/12/16 02:16:22;;;;;;;9.30;2.78;;;;;;;7.17;100.00;103628.13;4780012;29;20110;-72
2023/12/16 02:18:49;;;;;;;8.07;2.95;;;;;;;7.28;100.00;103630.56;4779940;29;20039;-72
2023/12/16 02:21:14;;;;;;;3.80;2.10;;;;;;;7.24;100.00;103634.22;4784425;29;20493;-72
2023/12/16 02:23:41;;;;;;;9.48;2.33;;;;;;;7.23;100.00;103621.41;4781450;29;20070;-73
2023/12/16 02:26:06;;;;;;;7.45;3.15;;;;;;;7.25;100.00;103599.66;4781313;29;20047;-72
2023/12/16 02:28:32;;;;;;;15.65;3.65;;;;;;;7.05;100.00;103612.59;4781715;29;20032;-75
2023/12/16 02:30:57;;;;;;;4.88;2.15;;;;;;;7.07;100.00;103590.88;4771259;29;20036;-71
2023/12/16 02:33:22;;;;;;;10.10;2.72;;;;;;;7.03;100.00;103573.06;4782135;29;20027;-72
2023/12/16 02:35:48;;;;;;;7.47;2.33;;;;;;;7.10;100.00;103584.75;4777212;29;20043;-72
2023/12/16 02:38:13;;;;;;;10.02;2.85;;;;;;;6.97;100.00;103585.34;4779315;29;20507;-75
2023/12/16 02:40:42;;;;;;;7.50;2.15;;;;;;;6.98;100.00;103587.03;4776361;29;20092;-75
2023/12/16 02:43:10;;;;;;;5.40;2.00;;;;;;;6.99;100.00;103593.44;4775249;29;20070;-75
2023/12/16 02:45:35;;;;;;;11.70;2.50;;;;;;;6.97;100.00;103585.34;4780375;29;20438;-75
2023/12/16 02:48:01;;;;;;;7.63;2.22;;;;;;;7.00;100.00;103584.78;4776442;29;20063;-75
2023/12/16 02:50:26;;;;;;;10.95;2.30;;;;;;;7.01;100.00;103585.63;4781275;29;20143;-75
2023/12/16 02:52:51;;;;;;;10.23;2.60;;;;;;;7.00;100.00;103593.16;4773189;29;20120;-75
2023/12/16 02:55:18;;;;;;;4.70;2.30;;;;;;;6.91;100.00;103589.28;4782397;29;20168;-75
2023/12/16 02:57:44;;;;;;;16.52;4.57;;;;;;;6.97;100.00;103584.53;4776637;29;20035;-75
2023/12/16 03:00:10;;;;;;;9.68;2.85;;;;;;;6.99;100.00;103577.53;4777389;29;20046;-75
2023/12/16 03:02:36;;;;;;;4.53;2.40;;;;;;;7.02;100.00;103571.41;4779410;29;20035;-75
2023/12/16 03:05:01;;;;;;;7.85;2.80;;;;;;;7.02;100.00;103574.19;4779718;29;20107;-75
2023/12/16 03:07:26;;;;;;;9.38;2.90;;;;;;;7.01;100.00;103569.72;4774906;29;20035;-75
2023/12/16 03:09:52;;;;;;;15.70;3.50;;;;;;;6.94;100.00;103573.97;4778086;29;20039;-76
2023/12/16 03:12:17;;;;;;;11.23;2.65;;;;;;;6.98;100.00;103570.31;4779851;29;20031;-75
2023/12/16 03:14:43;;;;;;;9.77;2.53;;;;;;;6.97;100.00;103571.44;4775893;29;20043;-75
2023/12/16 03:17:09;;;;;;;8.55;3.05;;;;;;;7.02;100.00;103571.41;4789848;29;20042;-75
2023/12/16 03:19:34;;;;;;;5.63;2.47;;;;;;;6.91;100.00;103564.22;4775592;29;20500;-75
2023/12/16 03:22:00;;;;;;;7.07;2.33;;;;;;;6.94;100.00;103566.44;4777237;29;20042;-75
2023/12/16 03:24:25;;;;;;;13.65;2.85;;;;;;;6.98;100.00;103558.31;4773892;29;20308;-75
2023/12/16 03:26:50;;;;;;;9.00;2.67;;;;;;;6.93;100.00;103553.63;4779826;29;20114;-75
2023/12/16 03:29:16;;;;;;;3.45;1.75;;;;;;;6.80;100.00;103563.44;4776880;29;20031;-75
2023/12/16 03:31:41;;;;;;;12.18;3.10;;;;;;;6.83;100.00;103573.16;4772487;29;20046;-75
2023/12/16 03:34:06;;;;;;;7.13;2.22;;;;;;;6.80;100.00;103573.75;4777995;29;20067;-75
2023/12/16 03:36:32;;;;;;;11.90;2.88;;;;;;;6.89;100.00;103586.81;4786536;29;20042;-75
2023/12/16 03:38:57;;;;;;;6.43;2.70;;;;;;;6.88;100.00;103570.38;4776261;29;20043;-75
2023/12/16 03:41:22;;;;;;;11.15;2.28;;;;;;;6.85;100.00;103582.06;4781492;29;20034;-76
2023/12/16 03:43:48;;;;;;;13.55;2.97;;;;;;;6.84;100.00;103592.38;4776394;29;20089;-75
2023/12/16 03:46:13;;;;;;;5.32;2.00;;;;;;;6.92;100.00;103582.59;4780875;29;20039;-75
2023/12/16 03:48:38;;;;;;;7.53;2.45;;;;;;;6.96;100.00;103583.69;4791608;29;20051;-75
2023/12/16 03:51:04;;;;;;;9.55;3.63;;;;;;;6.88;100.00;103595.44;4778516;29;20146;-75
2023/12/16 03:53:29;;;;;;;7.20;2.58;;;;;;;7.01;100.00;103600.38;4777635;29;20043;-75
2023/12/16 03:55:55;;;;;;;11.70;2.55;;;;;;;6.89;100.00;103606.28;4779686;29;20741;-75
2023/12/16 03:58:20;;;;;;;3.83;2.20;;;;;;;6.79;100.00;103589.63;4781013;29;20035;-75
2023/12/16 04:00:45;;;;;;;8.65;2.45;;;;;;;6.92;100.00;103593.75;4792628;29;20624;-75
2023/12/16 04:03:11;;;;;;;8.05;2.50;;;;;;;6.94;100.00;103593.47;4773832;29;20042;-75
2023/12/16 04:05:36;;;;;;;9.88;2.33;;;;;;;6.96;100.00;103589.28;4772627;29;20039;-75
2023/12/16 04:08:03;;;;;;;7.28;2.83;;;;;;;6.90;100.00;103582.88;4773655;29;20051;-75
2023/12/16 04:10:29;;;;;;;12.38;3.05;;;;;;;6.94;100.00;103583.16;4776077;29;20036;-75
2023/12/16 04:12:54;;;;;;;10.55;2.75;;;;;;;7.00;100.00;103586.72;4773774;29;20054;-77
2023/12/16 04:15:20;;;;;;;10.02;2.92;;;;;;;6.97;100.00;103596.50;4776371;29;20038;-75
2023/12/16 04:17:45;;;;;;;13.52;3.30;;;;;;;7.05;100.00;103581.97;4781302;29;20066;-74
2023/12/16 04:20:10;;;;;;;7.43;3.08;;;;;;;6.97;100.00;103588.13;4778210;29;20039;-75
2023/12/16 04:22:37;;;;;;;15.45;2.67;;;;;;;6.99;100.00;103583.13;4780492;29;20087;-75
2023/12/16 04:25:09;;;;;;;10.40;2.88;;;;;;;7.02;100.00;103581.69;4788367;29;20131;-75
2023/12/16 04:27:34;;;;;;;8.45;2.60;;;;;;;7.11;100.00;103580.81;4779963;29;20050;-75
2023/12/16 04:30:00;;;;;;;11.18;2.80;;;;;;;6.89;100.00;103583.16;4790396;29;20039;-75
2023/12/16 04:32:25;;;;;;;6.38;3.38;;;;;;;7.07;100.00;103581.69;4778268;29;20082;-75
2023/12/16 04:34:51;;;;;;;11.15;2.78;;;;;;;6.95;100.00;103597.91;4775641;29;20040;-75
2023/12/16 04:37:16;;;;;;;5.90;2.72;;;;;;;7.04;100.00;103596.16;4774586;29;20178;-75
2023/12/16 04:39:41;;;;;;;13.65;3.65;;;;;;;6.99;100.00;103588.69;4773336;29;20126;-75
2023/12/16 04:42:09;;;;;;;11.20;3.53;;;;;;;7.03;100.00;103591.72;4776751;29;20036;-75
2023/12/16 04:44:36;;;;;;;9.43;3.25;;;;;;;6.95;100.00;103581.19;4781503;29;20428;-75
2023/12/16 04:47:02;;;;;;;13.23;2.72;;;;;;;6.93;100.00;103578.69;4780360;29;20569;-76
2023/12/16 04:49:27;;;;;;;12.57;3.00;;;;;;;6.98;100.00;103581.47;4779129;29;20032;-75
2023/12/16 04:51:52;;;;;;;6.57;3.05;;;;;;;6.80;100.00;103573.75;4781215;29;20031;-75
2023/12/16 04:54:17;;;;;;;25.33;4.10;;;;;;;6.81;100.00;103581.84;4784039;29;20059;-75
2023/12/16 04:56:43;;;;;;;7.50;2.97;;;;;;;6.86;100.00;103576.22;4777063;29;20086;-74
2023/12/16 04:59:09;;;;;;;9.02;3.35;;;;;;;6.85;100.00;103577.34;4785115;29;20552;-75
2023/12/16 05:01:34;;;;;;;17.55;3.28;;;;;;;6.95;100.00;103587.59;4786386;29;20049;-75
2023/12/16 05:04:00;;;;;;;14.45;3.78;;;;;;;6.86;100.00;103584.56;4783379;29;20045;-75
2023/12/16 05:06:25;;;;;;;7.70;2.95;;;;;;;6.86;100.00;103579.00;4780871;29;20027;-75
2023/12/16 05:08:50;;;;;;;11.50;3.15;;;;;;;6.87;100.00;103579.84;4780125;29;20027;-75
2023/12/16 05:11:16;;;;;;;12.77;3.40;;;;;;;6.83;100.00;103578.75;4787013;29;20070;-75
2023/12/16 05:13:42;;;;;;;11.48;4.60;;;;;;;6.79;100.00;103578.50;4780569;29;20130;-75
2023/12/16 05:16:08;;;;;;;8.23;3.00;;;;;;;6.75;100.00;103576.59;4779033;29;20206;-75
2023/12/16 05:18:33;;;;;;;13.00;4.05;;;;;;;6.79;100.00;103572.94;4777676;29;20540;-75
2023/12/16 05:20:58;;;;;;;10.27;3.33;;;;;;;6.83;100.00;103557.31;4788004;29;20047;-75
2023/12/16 05:23:24;;;;;;;13.75;3.10;;;;;;;6.80;100.00;103560.66;4782861;29;20046;-75
2023/12/16 05:25:49;;;;;;;7.38;3.60;;;;;;;6.81;100.00;103567.06;4793238;29;20408;-75
2023/12/16 05:28:14;;;;;;;15.73;3.22;;;;;;;6.80;100.00;103562.63;4779995;29;20053;-75
2023/12/16 05:30:40;;;;;;;12.02;3.67;;;;;;;6.78;100.00;103564.84;4775689;29;20408;-75
2023/12/16 05:33:05;;;;;;;13.50;3.63;;;;;;;6.74;100.00;103572.13;4779986;29;20043;-75
2023/12/16 05:35:31;;;;;;;16.67;4.28;;;;;;;6.75;100.00;103568.22;4793343;29;20024;-75
2023/12/16 05:37:57;;;;;;;16.08;4.85;;;;;;;6.70;100.00;103578.25;4772680;29;20044;-75
2023/12/16 05:40:22;;;;;;;13.13;3.25;;;;;;;6.77;100.00;103574.31;4775548;30;20042;-75
2023/12/16 05:42:47;;;;;;;11.80;4.53;;;;;;;6.64;100.00;103570.19;4779228;29;20035;-75
2023/12/16 05:45:13;;;;;;;13.55;5.05;;;;;;;6.61;100.00;103554.09;4778895;29;20083;-75
2023/12/16 05:47:38;;;;;;;10.50;3.50;;;;;;;6.54;100.00;103559.97;4779467;29;20491;-75
2023/12/16 05:50:04;;;;;;;11.75;3.53;;;;;;;6.64;100.00;103561.84;4782689;29;20031;-76
2023/12/16 05:52:31;;;;;;;10.80;3.92;;;;;;;6.59;100.00;103554.34;4771070;29;20046;-75
2023/12/16 05:54:56;;;;;;;13.57;4.05;;;;;;;6.68;100.00;103554.59;4775243;29;20043;-75
2023/12/16 05:57:22;;;;;;;20.90;4.65;;;;;;;6.61;100.00;103570.78;4781606;29;20053;-75
2023/12/16 05:59:47;;;;;;;7.07;4.00;;;;;;;6.68;100.00;103565.72;4792646;29;20067;-75
2023/12/16 06:02:13;;;;;;;16.55;4.15;;;;;;;6.66;100.00;103568.81;4784457;29;20449;-75
2023/12/16 06:04:38;;;;;;;15.88;4.43;;;;;;;6.61;100.00;103570.78;4779238;29;20115;-75
2023/12/16 06:07:03;;;;;;;9.13;3.67;;;;;;;6.62;100.00;103553.81;4779185;29;20031;-74
2023/12/16 06:09:29;;;;;;;19.13;4.95;;;;;;;6.63;100.00;103563.81;4780952;29;20074;-75
2023/12/16 06:11:55;;;;;;;10.73;3.95;;;;;;;6.61;100.00;103570.78;4775636;29;20043;-74
2023/12/16 06:14:21;;;;;;;14.05;4.97;;;;;;;6.59;100.00;103567.44;4781290;29;20058;-74
2023/12/16 06:16:46;;;;;;;5.80;3.90;;;;;;;6.56;100.00;103568.84;4777521;29;20043;-74
2023/12/16 06:19:12;;;;;;;11.35;4.85;;;;;;;6.64;100.00;103564.63;4777795;29;20185;-74
2023/12/16 06:21:37;;;;;;;19.30;5.18;;;;;;;6.63;100.00;103571.34;4775504;29;20464;-75
2023/12/16 06:24:04;;;;;;;16.67;5.10;;;;;;;6.62;100.00;103578.84;4777046;29;20027;-74
2023/12/16 06:26:29;;;;;;;11.38;4.10;;;;;;;6.64;100.00;103573.84;4780821;29;20039;-74
2023/12/16 06:28:55;;;;;;;13.25;4.70;;;;;;;6.54;100.00;103571.09;4781777;29;20045;-74
2023/12/16 06:31:21;;;;;;;18.98;5.18;;;;;;;6.60;100.00;103575.53;4777302;29;20035;-74
2023/12/16 06:33:46;;;;;;;14.32;4.15;;;;;;;6.40;100.00;103565.28;4778176;29;20027;-74
2023/12/16 06:36:11;;;;;;;14.60;5.85;;;;;;;6.57;100.00;103564.13;4781435;29;20050;-74
2023/12/16 06:38:37;;;;;;;11.23;4.05;;;;;;;6.47;100.00;103564.97;4786651;29;20054;-74
2023/12/16 06:41:04;;;;;;;21.55;4.78;;;;;;;6.51;100.00;103571.66;4780815;29;20043;-75
2023/12/16 06:43:30;;;;;;;15.05;4.45;;;;;;;6.45;100.00;103579.19;4782080;29;20031;-74
2023/12/16 06:45:55;;;;;;;20.65;5.63;;;;;;;6.50;100.00;103581.13;4780388;29;20112;-74
2023/12/16 06:48:21;;;;;;;15.48;4.60;;;;;;;6.51;100.00;103577.22;4775794;29;20062;-74
2023/12/16 06:50:46;;;;;;;13.57;4.15;;;;;;;6.57;100.00;103581.63;4775211;29;20031;-74
2023/12/16 06:53:12;;;;;;;11.93;4.60;;;;;;;6.59;100.00;103579.41;4773608;29;20035;-75
2023/12/16 06:55:37;;;;;;;12.48;4.20;;;;;;;6.48;100.00;103583.34;4789418;29;20043;-74
2023/12/16 06:58:04;;;;;;;18.02;5.30;;;;;;;6.57;100.00;103583.59;4779920;29;20035;-74
2023/12/16 07:00:29;;;;;;;19.25;5.32;;;;;;;6.44;100.00;103585.03;4779418;29;20035;-74
2023/12/16 07:02:54;;;;;;;16.15;5.40;;;;;;;6.43;100.00;103595.34;4780454;29;20105;-74
2023/12/16 07:05:20;;;;;;;13.80;4.60;;;;;;;6.44;100.00;103598.94;4779066;29;20133;-74
2023/12/16 07:07:45;;;;;;;19.23;4.75;;;;;;;6.46;100.00;103593.94;4776815;29;20074;-74
2023/12/16 07:10:11;;;;;;;14.15;4.65;;;;;;;6.47;100.00;103598.38;4778926;29;20039;-74
2023/12/16 07:12:36;;;;;;;8.85;4.22;;;;;;;6.38;100.00;103588.94;4775021;29;20059;-74
2023/12/16 07:15:02;;;;;;;16.38;5.15;;;;;;;6.38;100.00;103591.72;4778639;29;20122;-74
2023/12/16 07:17:27;;;;;;;23.40;6.43;;;;;;;6.30;100.00;103594.00;4769927;29;20118;-71
2023/12/16 07:19:52;;;;;;;18.70;4.80;;;;;;;6.39;100.00;103591.47;4776170;29;20058;-73
2023/12/16 07:22:18;;;;;;;20.08;4.55;;;;;;;6.43;100.00;103597.28;4775108;29;20027;-72
2023/12/16 07:24:43;;;;;;;12.75;4.95;;;;;;;6.46;100.00;103599.50;4777697;29;20032;-71
2023/12/16 07:27:09;;;;;;;19.95;4.90;;;;;;;6.36;100.00;103594.78;4776938;29;20058;-72
2023/12/16 07:29:35;;;;;;;20.00;6.18;;;;;;;6.40;100.00;103589.50;4791919;29;20039;-71
2023/12/16 07:32:00;;;;;;;9.48;4.20;;;;;;;6.44;100.00;103597.00;4788974;29;20043;-72
2023/12/16 07:34:26;;;;;;;19.33;4.97;;;;;;;6.31;100.00;103605.94;4774424;29;20088;-72
2023/12/16 07:36:51;;;;;;;11.10;5.60;;;;;;;6.35;100.00;103601.47;4778738;29;20030;-71
2023/12/16 07:39:17;;;;;;;14.88;5.28;;;;;;;6.34;100.00;103607.31;4776088;29;20079;-73
2023/12/16 07:41:42;;;;;;;20.58;5.55;;;;;;;6.28;100.00;103607.34;4778763;29;20119;-72
2023/12/16 07:44:07;;;;;;;19.50;6.57;;;;;;;6.32;100.00;103607.59;4774550;29;20043;-72
2023/12/16 07:46:33;;;;;;;11.40;4.45;;;;;;;6.38;100.00;103606.47;4771093;29;20055;-71
2023/12/16 07:48:58;;;;;;;19.40;5.22;;;;;;;6.34;100.00;103610.09;4769475;29;20057;-73
2023/12/16 07:51:26;;;;;;;21.10;5.63;;;;;;;6.29;100.00;103613.75;4778151;29;20050;-72
2023/12/16 07:53:53;;;;;;;12.93;4.53;;;;;;;6.39;100.00;103599.81;4774162;29;20055;-71
2023/12/16 07:56:24;;;;;;;10.15;4.60;;;;;;;6.37;100.00;103612.34;4778540;29;20504;-71
2023/12/16 07:58:50;;;;;;;23.15;6.28;;;;;;;6.38;100.00;103614.00;4775176;30;20031;-74
2023/12/16 08:01:17;;;;;;;19.25;6.35;;;;;;;6.38;100.00;103600.09;4780301;29;20019;-71
2023/12/16 08:03:43;;;;;;;11.23;4.82;;;;;;;6.43;100.00;103614.81;4776944;29;20082;-73
2023/12/16 08:06:09;;;;;;;17.75;7.43;;;;;;;6.40;100.00;103620.94;4776102;29;20039;-72
2023/12/16 08:08:35;;;;;;;19.60;5.47;;;;;;;6.48;100.00;103627.88;4775419;29;20050;-73
2023/12/16 08:11:01;;;;;;;16.90;7.15;;;;;;;6.53;100.00;103625.06;4772097;29;20211;-71
2023/12/16 08:13:27;;;;;;;12.45;4.85;;;;;;;6.62;100.00;103626.16;4773628;29;20047;-73
2023/12/16 08:15:52;;;;;;;19.00;6.15;;;;;;;6.58;100.00;103622.28;4778124;29;20047;-71
2023/12/16 08:18:17;;;;;;;14.10;6.30;;;;;;;6.62;100.00;103615.03;4773624;29;20071;-71
2023/12/16 08:20:43;;;;;;;13.23;5.60;;;;;;;6.68;100.00;103619.47;4775373;30;20401;-72
2023/12/16 08:23:08;;;;;;;16.27;6.13;;;;;;;6.66;100.00;103624.50;4790775;29;20042;-72
2023/12/16 08:25:37;;;;;;;12.02;6.13;;;;;;;6.67;100.00;103628.91;4777629;29;20053;-72
2023/12/16 08:28:02;;;;;;;14.80;5.90;;;;;;;6.66;100.00;103626.41;4776859;30;20039;-74
2023/12/16 08:30:31;;;;;;;15.43;5.90;;;;;;;6.67;100.00;103631.72;4777272;30;20386;-74
2023/12/16 08:32:56;;;;;;;14.98;5.78;;;;;;;6.69;100.00;103635.03;4776391;29;20035;-74
2023/12/16 08:35:21;;;;;;;21.25;5.88;;;;;;;6.76;100.00;103634.72;4776102;29;20037;-74
2023/12/16 08:37:47;;;;;;;18.25;5.15;;;;;;;6.80;100.00;103637.78;4771389;29;20050;-74
2023/12/16 08:40:12;;;;;;;15.15;4.88;;;;;;;6.85;100.00;103633.03;4773899;30;20069;-74
2023/12/16 08:42:42;;;;;;;21.45;6.10;;;;;;;6.84;100.00;103644.44;4774286;29;20408;-74
2023/12/16 08:45:08;;;;;;;22.02;5.85;;;;;;;6.83;100.00;103643.63;4777501;29;20042;-74
2023/12/16 08:47:34;;;;;;;9.32;5.03;;;;;;;6.86;100.00;103647.78;4770598;29;20066;-74
2023/12/16 08:49:59;;;;;;;23.85;6.55;;;;;;;6.90;100.00;103651.66;4776468;29;20043;-74
2023/12/16 08:52:26;;;;;;;16.85;5.45;;;;;;;6.93;100.00;103662.22;4797108;29;20035;-74
2023/12/16 08:54:52;;;;;;;12.65;6.57;;;;;;;6.95;100.00;103661.94;4778266;29;20059;-75
2023/12/16 08:57:17;;;;;;;19.88;6.32;;;;;;;6.95;100.00;103670.31;4777896;29;20123;-75
2023/12/16 08:59:42;;;;;;;23.92;6.30;;;;;;;7.00;100.00;103664.69;4776468;29;20031;-74
2023/12/16 09:02:08;;;;;;;18.75;7.68;;;;;;;7.02;100.00;103671.69;4778406;29;20043;-75
2023/12/16 09:04:33;;;;;;;19.52;5.75;;;;;;;7.07;100.00;103682.78;4773774;29;20031;-75
2023/12/16 09:06:58;;;;;;;18.20;6.03;;;;;;;7.05;100.00;103676.66;4775893;29;20043;-74
2023/12/16 09:09:24;;;;;;;20.02;5.50;;;;;;;7.06;100.00;103672.78;4776973;29;20444;-75
2023/12/16 09:11:49;;;;;;;13.23;7.30;;;;;;;7.05;100.00;103687.81;4767042;29;20047;-74
2023/12/16 09:14:15;;;;;;;24.13;6.93;;;;;;;7.04;100.00;103686.16;4772418;29;20043;-74
2023/12/16 09:16:40;;;;;;;17.30;5.65;;;;;;;7.09;100.00;103693.63;4774585;29;20556;-75
2023/12/16 09:19:07;;;;;;;17.83;5.28;;;;;;;7.12;100.00;103687.50;4780287;29;20034;-74
2023/12/16 09:21:33;;;;;;;14.57;5.00;;;;;;;7.12;100.00;103688.31;4778144;29;20077;-75
2023/12/16 09:23:58;;;;;;;18.50;7.75;;;;;;;7.15;100.00;103692.50;4776180;29;20035;-75
2023/12/16 09:26:24;;;;;;;22.48;6.13;;;;;;;7.18;100.00;103707.81;4774812;29;20777;-75
2023/12/16 09:28:49;;;;;;;19.15;6.47;;;;;;;7.18;100.00;103694.69;4779848;29;20084;-75
2023/12/16 09:31:16;;;;;;;11.80;4.97;;;;;;;7.21;100.00;103690.50;4779170;29;20035;-75
2023/12/16 09:33:41;;;;;;;19.00;5.63;;;;;;;7.27;100.00;103694.94;4780741;29;20031;-75
2023/12/16 09:36:12;;;;;;;26.85;7.25;;;;;;;7.25;100.00;103686.03;4793138;29;20045;-75
2023/12/16 09:38:37;;;;;;;30.63;7.20;;;;;;;7.27;100.00;103689.38;4778693;29;20743;-74
2023/12/16 09:41:03;;;;;;;17.33;5.70;;;;;;;7.27;100.00;103694.94;4779008;29;20054;-72
2023/12/16 09:43:33;;;;;;;11.13;4.82;;;;;;;7.31;100.00;103694.06;4781837;29;20090;-72
2023/12/16 09:45:59;;;;;;;20.63;6.78;;;;;;;7.32;100.00;103698.53;4781837;29;20092;-72
2023/12/16 09:48:24;;;;;;;23.58;5.88;;;;;;;7.34;100.00;103706.63;4775844;29;20051;-74
2023/12/16 09:50:50;;;;;;;21.63;7.45;;;;;;;7.37;100.00;103697.66;4784219;29;20035;-72
2023/12/16 09:53:15;;;;;;;27.02;6.60;;;;;;;7.39;100.00;103694.59;4777466;29;20036;-71
2023/12/16 09:55:44;;;;;;;19.90;6.78;;;;;;;7.38;100.00;103690.13;4777100;29;20040;-71
2023/12/16 09:58:15;;;;;;;19.42;6.93;;;;;;;7.35;100.00;103688.75;4783224;29;20516;-72
2023/12/16 10:00:46;;;;;;;34.72;8.32;;;;;;;7.38;100.00;103702.13;4782487;29;20096;-71
2023/12/16 10:03:14;;;;;;;19.80;7.60;;;;;;;7.38;100.00;103702.13;4775413;29;20031;-70
2023/12/16 10:05:41;;;;;;;32.00;7.70;;;;;;;7.42;100.00;103694.88;4771695;29;20048;-72
2023/12/16 10:08:06;;;;;;;29.70;9.98;;;;;;;7.88;100.00;103696.50;4778107;29;20035;-71
2023/12/16 10:10:32;;;;;;;30.88;8.15;;;;;;;7.73;100.00;103708.59;4775479;29;20027;-72
2023/12/16 10:13:03;;;;;;;29.63;9.43;;;;;;;7.57;100.00;103698.66;4784279;29;20119;-73
2023/12/16 10:15:32;;;;;;;29.33;9.25;;;;;;;7.60;100.00;103696.16;4777522;29;20688;-70
2023/12/16 10:18:02;;;;;;;25.88;10.05;;;;;;;7.58;100.00;103697.56;4778442;29;20094;-72
2023/12/16 10:20:28;;;;;;;34.40;10.75;;;;;;;7.58;100.00;103694.78;4782723;29;20556;-74
2023/12/16 10:22:54;;;;;;;23.42;9.93;;;;;;;7.57;100.00;103687.53;4775050;29;20406;-72
2023/12/16 10:25:19;;;;;;;23.25;9.98;;;;;;;7.87;100.00;103687.31;4772461;29;20141;-72
2023/12/16 10:27:46;;;;;;;26.25;10.90;;;;;;;7.74;100.00;103687.97;4780181;29;20519;-74
2023/12/16 10:30:11;;;;;;;27.05;11.73;;;;;;;7.76;100.00;103690.44;4779638;29;20113;-73
2023/12/16 10:32:40;;;;;;;26.75;10.88;;;;;;;7.74;100.00;103693.56;4772737;29;20043;-73
2023/12/16 10:35:06;;;;;;;39.83;12.30;;;;;;;7.93;100.00;103686.16;4779980;29;20071;-75
2023/12/16 10:37:32;;;;;;;38.83;13.13;;;;;;;7.67;100.00;103681.88;4775499;29;20467;-73
2023/12/16 10:39:57;;;;;;;18.73;9.35;;;;;;;7.70;100.00;103681.31;4780900;29;20201;-73
2023/12/16 10:42:23;;;;;;;31.33;9.40;;;;;;;7.64;100.00;103676.91;4783348;29;20027;-75
2023/12/16 10:44:50;;;;;;;23.35;10.73;;;;;;;7.59;100.00;103666.63;4787538;29;20030;-73
2023/12/16 10:47:17;;;;;;;29.27;11.10;;;;;;;7.66;100.00;103669.06;4783727;29;20067;-73
2023/12/16 10:49:47;;;;;;;32.25;11.95;;;;;;;7.64;100.00;103660.16;4783031;29;20051;-75
2023/12/16 10:52:16;;;;;;;28.85;11.13;;;;;;;7.67;100.00;103643.69;4777928;29;20532;-73
2023/12/16 10:54:44;;;;;;;30.15;10.75;;;;;;;7.69;100.00;103647.00;4782957;29;20531;-73
2023/12/16 10:57:18;;;;;;;33.38;11.05;;;;;;;7.70;100.00;103645.06;4784457;29;20074;-76
2023/12/16 10:59:53;;;;;;;29.52;12.35;;;;;;;7.66;100.00;103642.03;4782287;29;20039;-73
2023/12/16 11:02:22;;;;;;;29.90;12.38;;;;;;;7.65;100.00;103640.38;4786339;29;20412;-75
2023/12/16 11:04:55;;;;;;;29.65;11.63;;;;;;;7.76;100.00;103638.34;4786820;29;20126;-75
2023/12/16 11:07:22;;;;;;;32.85;12.45;;;;;;;7.66;100.00;103625.28;4780954;29;20161;-73
2023/12/16 11:09:48;;;;;;;32.28;10.63;;;;;;;7.71;100.00;103621.63;4781561;29;20529;-74
2023/12/16 11:12:14;;;;;;;35.47;12.15;;;;;;;7.75;100.00;103619.91;4782194;29;20430;-73